Latest Weather Observations for Oakey

IDQ60801

Issued at 3:32 pm EST Saturday 1 August 2015 (issued every 30 minutes, with the page automatically refreshed every 10 minutes)

About weather observations | Map of weather stations | Latest weather observations for QLD | Other Formats
Station Details ID: 041359 Name: OAKEY AERO Lat: -27.40 Lon: 151.74 Height: 405.69 m
Data from the previous 72 hours. | See also: Recent months at Oakey
Date/Time
EST
Temp
°C
App
Temp
°C
Dew
Point
Rel
Hum
%
Delta-T
°C
Wind Press
QNH
hPa
Press
MSL
hPa
Rain
since 9 am
mm
Dir
 
Spd
km/h
Gust
km/h
Spd
kts
Gust
kts
01/03:30pm 23.4 18.6 -0.1 21 10.8 WNW 15 22 8 12 1021.0 1020.9 0.0
01/03:00pm 23.7 19.3 0.1 21 11.0 WNW 13 20 7 11 1021.2 1021.1 0.0
01/02:30pm 23.8 19.8 0.2 21 11.0 NNW 11 17 6 9 1021.1 1021.0 0.0
01/02:00pm 23.6 20.1 -1.3 19 11.3 NW 7 13 4 7 1021.3 1021.2 0.0
01/01:30pm 23.1 19.3 -1.1 20 11.0 NW 9 17 5 9 1021.6 1021.5 0.0
01/01:00pm 23.0 18.6 0.2 22 10.5 NNW 13 19 7 10 1021.9 1021.8 0.0
01/12:30pm 22.5 18.4 -0.3 22 10.4 NW 11 20 6 11 1022.3 1022.2 0.0
01/12:00pm 22.1 18.0 0.0 23 10.1 NW 11 20 6 11 1022.7 1022.7 0.0
01/11:30am 21.8 18.3 1.5 26 9.6 N 9 13 5 7 1023.2 1023.2 0.0
01/11:00am 21.0 18.4 0.8 26 9.3 SSE 4 7 2 4 1023.9 1023.8 0.0
01/10:30am 19.9 16.9 0.9 28 8.7 ESE 6 50 3 27 1024.2 1024.1 0.0
01/10:00am 18.9 16.0 2.7 34 7.6 E 7 9 4 5 1024.3 1024.2 0.0
01/09:30am 17.7 14.2 3.6 39 6.7 NE 11 15 6 8 1024.4 1024.6 0.0
01/09:00am 14.7 11.9 5.2 53 4.6 NE 9 13 5 7 1024.1 1024.2 0.0
01/08:30am 10.7 7.8 4.8 67 2.7 ENE 9 9 5 5 1024.3 1024.5 0.0
01/08:00am 8.2 5.2 4.0 75 1.9 NE 9 11 5 6 1024.2 1024.4 0.0
01/07:30am 5.7 2.7 4.2 90 0.7 ENE 9 11 5 6 1024.1 1024.2 0.0
01/07:00am 1.7 -1.9 0.5 92 0.5 SE 9 11 5 6 1023.6 1023.7 0.0
01/06:30am 1.2 -2.5 -0.1 91 0.5 SE 9 11 5 6 1023.0 1023.2 0.0
01/06:00am 1.1 -2.3 -0.4 90 0.6 NE 7 7 4 4 1022.8 1023.0 0.0
01/05:30am 1.1 -2.7 -0.4 90 0.6 NE 9 11 5 6 1022.6 1022.8 0.0
01/05:00am 1.0 -2.8 -0.5 90 0.5 E 9 9 5 5 1022.6 1022.8 0.0
01/04:30am 1.4 -2.0 -0.4 88 0.7 E 7 9 4 5 1022.6 1022.8 0.0
01/04:00am 1.3 -1.9 -0.5 88 0.7 NE 6 7 3 4 1022.7 1022.9 0.0
01/03:30am 1.8 -1.4 -0.3 86 0.8 NNE 6 7 3 4 1022.7 1022.9 0.0
01/03:00am 2.1 -1.0 0.0 86 0.8 ENE 6 9 3 5 1023.1 1023.3 0.0
01/02:30am 2.9 -0.3 1.0 87 0.7 ESE 7 9 4 5 1023.2 1023.4 0.0
01/02:00am 2.3 -1.0 0.2 86 0.8 NE 7 9 4 5 1023.4 1023.5 0.0
01/01:30am 2.7 -0.5 0.6 86 0.8 ESE 7 9 4 5 1023.8 1023.9 0.0
01/01:00am 3.0 1.1 0.7 85 0.9 CALM 0 6 0 3 1023.9 1024.0 0.0
01/12:30am 3.6 1.8 1.0 83 1.0 CALM 0 0 0 0 1023.8 1023.9 0.0
01/12:00am 4.0 2.2 1.4 83 1.0 CALM 0 2 0 1 1023.9 1024.0 0.0
 
Date/Time
EST
Temp
°C
App
Temp
°C
Dew
Point
Rel
Hum
%
Delta-T
°C
Wind Press
QNH
hPa
Press
MSL
hPa
Rain
since 9 am
mm
Dir
 
Spd
km/h
Gust
km/h
Spd
kts
Gust
kts
31/11:30pm 4.1 1.1 0.8 79 1.3 NE 6 7 3 4 1023.9 1024.0 0.0
31/11:00pm 4.3 0.4 1.3 81 1.2 NE 11 13 6 7 1023.8 1023.9 0.0
31/10:30pm 5.5 2.4 1.1 73 1.8 E 7 9 4 5 1023.7 1023.8 0.0
31/10:00pm 5.3 2.8 1.6 77 1.5 NE 4 7 2 4 1023.7 1023.8 0.0
31/09:30pm 5.8 2.7 1.5 74 1.8 NNE 7 7 4 4 1023.5 1023.6 0.0
31/09:00pm 6.3 3.2 1.4 71 2.0 NE 7 9 4 5 1023.4 1023.5 0.0
31/08:30pm 7.1 4.2 1.2 66 2.4 ENE 6 6 3 3 1023.2 1023.4 0.0
31/08:00pm 8.6 5.6 1.7 62 2.9 NE 7 9 4 5 1023.0 1023.2 0.0
31/07:30pm 8.2 4.8 1.8 64 2.7 NNE 9 11 5 6 1022.7 1022.9 0.0
31/07:00pm 10.2 7.3 1.3 54 3.8 E 6 6 3 3 1022.3 1022.5 0.0
31/06:30pm 12.6 9.4 1.0 45 5.0 SW 7 9 4 5 1022.0 1022.1 0.0
31/06:00pm 14.6 10.6 0.8 39 6.0 SW 11 11 6 6 1021.9 1022.0 0.0
31/05:30pm 15.8 11.8 0.8 36 6.6 WSW 11 13 6 7 1021.7 1021.8 0.0
31/05:00pm 18.3 13.2 0.9 31 7.9 WSW 17 19 9 10 1021.5 1021.6 0.0
31/04:30pm 20.1 14.8 -0.5 25 9.2 WSW 17 24 9 13 1021.6 1021.7 0.0
31/04:00pm 20.8 15.8 1.6 28 9.0 WSW 17 24 9 13 1021.5 1021.6 0.0
31/03:30pm 20.9 16.2 1.2 27 9.2 WSW 15 20 8 11 1021.5 1021.6 0.0
31/03:00pm 21.0 16.3 3.2 31 8.6 SW 17 28 9 15 1021.5 1021.6 0.0
31/02:30pm 20.8 16.6 4.0 33 8.3 WSW 15 26 8 14 1021.7 1021.8 0.0
31/02:00pm 20.2 14.9 2.1 30 8.5 WSW 19 24 10 13 1022.0 1022.1 0.0
31/01:30pm 19.9 14.2 2.7 32 8.2 WSW 22 30 12 16 1022.3 1022.5 0.0
31/01:00pm 19.6 14.4 2.5 32 8.1 WSW 19 30 10 16 1022.7 1022.9 0.0
31/12:30pm 18.6 13.8 4.4 39 6.9 W 19 28 10 15 1022.9 1023.1 0.0
31/12:00pm 18.1 13.6 6.3 46 5.9 W 19 33 10 18 1023.7 1023.8 0.0
31/11:30am 17.5 13.1 6.4 48 5.6 WSW 19 33 10 18 1024.3 1024.5 0.0
31/11:00am 17.2 12.5 7.8 54 4.8 WNW 22 30 12 16 1024.7 1024.9 0.0
31/10:30am 16.5 13.9 9.2 62 3.9 WNW 13 22 7 12 1025.0 1025.2 0.0
31/10:00am 15.2 13.2 10.2 72 2.7 NW 11 17 6 9 1025.7 1025.9 0.0
31/09:30am 12.7 11.1 8.6 76 2.1 WNW 7 9 4 5 1025.5 1025.7 0.0
31/09:00am 10.8 9.2 8.0 83 1.4 SSE 6 7 3 4 1025.8 1026.0 0.0
31/08:30am 9.6 9.3 8.5 93 0.5 CALM 0 0 0 0 1025.5 1025.7 0.0
31/08:00am 6.7 5.1 6.4 98 0.1 NE 4 7 2 4 1025.2 1025.4 0.0
31/07:30am 4.2 2.1 3.9 98 0.1 NE 4 6 2 3 1025.0 1025.2 0.0
31/07:25am 3.8 1.6 3.5 98 0.1 NE 4 6 2 3 1024.9 1025.1 0.0
31/07:00am 1.6 -1.4 0.9 95 0.3 NNE 6 7 3 4 1024.7 1024.9 0.0
31/06:30am 1.3 -2.0 0.4 94 0.3 NE 7 9 4 5 1024.2 1024.4 0.0
31/06:00am 1.8 -0.4 1.1 95 0.3 ENE 2 7 1 4 1023.8 1023.9 0.0
31/05:30am 2.6 0.5 2.0 96 0.2 NE 2 6 1 3 1023.2 1023.4 0.0
31/05:00am 2.7 -0.7 2.1 96 0.2 SE 9 9 5 5 1023.0 1023.2 0.0
31/04:30am 2.5 0.0 1.8 95 0.3 SSE 4 9 2 5 1022.8 1023.0 0.0
31/04:00am 2.3 -0.6 1.3 93 0.4 N 6 9 3 5 1022.8 1023.0 0.0
31/03:30am 3.0 -0.4 2.1 94 0.4 NE 9 11 5 6 1023.1 1023.3 0.0
31/03:00am 3.7 0.1 3.1 96 0.2 S 11 13 6 7 1023.9 1024.0 0.0
31/02:30am 4.2 1.5 3.6 96 0.3 SE 7 9 4 5 1024.0 1024.1 0.0
31/02:00am 3.6 0.0 2.7 94 0.4 NE 11 13 6 7 1023.9 1024.0 0.0
31/01:30am 3.9 0.7 2.9 93 0.4 ESE 9 11 5 6 1024.1 1024.2 0.0
31/01:00am 3.8 0.9 2.6 92 0.5 ENE 7 9 4 5 1024.1 1024.2 0.0
31/12:30am 4.2 2.6 2.7 90 0.6 CALM 0 0 0 0 1024.3 1024.5 0.0
31/12:00am 4.7 1.6 3.4 91 0.5 NE 9 11 5 6 1024.4 1024.6 0.0
 
Date/Time
EST
Temp
°C
App
Temp
°C
Dew
Point
Rel
Hum
%
Delta-T
°C
Wind Press
QNH
hPa
Press
MSL
hPa
Rain
since 9 am
mm
Dir
 
Spd
km/h
Gust
km/h
Spd
kts
Gust
kts
30/11:30pm 5.4 2.0 4.1 91 0.6 NE 11 13 6 7 1024.7 1024.9 0.0
30/11:00pm 5.9 3.4 3.9 87 0.9 ESE 6 7 3 4 1025.0 1025.2 0.0
30/10:30pm 6.0 3.4 3.3 83 1.2 NE 6 7 3 4 1025.3 1025.5 0.0
30/10:00pm 7.0 4.9 4.0 81 1.3 ENE 4 6 2 3 1025.4 1025.6 0.0
30/09:30pm 8.0 6.1 4.9 81 1.4 NE 4 7 2 4 1025.3 1025.5 0.0
30/09:00pm 8.7 6.6 5.6 81 1.4 NE 6 6 3 3 1025.1 1025.3 0.0
30/08:30pm 8.9 6.6 5.8 81 1.4 NNE 7 7 4 4 1025.1 1025.3 0.0
30/08:00pm 10.2 8.0 6.4 77 1.8 NE 7 9 4 5 1025.0 1025.2 0.0
30/07:30pm 11.6 10.0 7.9 78 1.8 NE 6 9 3 5 1025.0 1025.2 0.0
30/07:00pm 12.2 10.5 7.7 74 2.2 ESE 6 7 3 4 1024.9 1025.1 0.0
30/06:30pm 12.8 10.0 7.0 68 2.9 NE 11 13 6 7 1024.7 1024.9 0.0
30/06:00pm 15.0 10.9 8.5 65 3.3 NE 20 22 11 12 1024.0 1024.1 0.0
30/05:30pm 17.7 16.1 4.6 42 6.4 NNE 2 7 1 4 1024.1 1024.2 0.0
30/05:00pm 18.8 17.3 6.6 45 6.2 WSW 4 9 2 5 1024.3 1024.5 0.0
30/04:30pm 20.1 17.6 4.6 36 7.7 WNW 7 11 4 6 1024.0 1024.1 0.0
30/04:00pm 20.6 18.3 5.0 36 7.8 N 6 11 3 6 1023.9 1024.0 0.0
30/03:30pm 20.3 17.1 5.1 37 7.6 N 11 17 6 9 1023.8 1023.9 0.0
30/03:00pm 19.9 15.9 4.8 37 7.5 N 15 22 8 12 1023.8 1023.9 0.0
30/02:30pm 20.2 17.0 5.1 37 7.5 NE 11 15 6 8 1024.2 1024.4 0.0
30/02:00pm 20.1 17.5 6.1 40 7.1 W 9 28 5 15 1024.8 1025.0 0.0
30/01:30pm 19.7 17.8 7.4 45 6.4 SE 7 11 4 6 1025.2 1025.4 0.0
30/01:00pm 20.2 17.7 6.5 41 7.0 NNE 9 17 5 9 1025.6 1025.8 0.0
30/12:30pm 19.1 15.9 6.9 45 6.3 NNE 13 19 7 10 1026.0 1026.1 0.0
30/12:00pm 19.0 16.9 8.4 50 5.6 NE 9 13 5 7 1026.6 1026.8 0.0
30/11:30am 17.4 15.5 7.7 53 5.0 E 7 13 4 7 1027.2 1027.4 0.0
30/11:00am 17.7 15.9 8.0 53 5.0 N 7 17 4 9 1027.7 1027.9 0.0
30/10:30am 16.4 14.2 7.9 57 4.4 E 9 17 5 9 1028.3 1028.6 0.0
30/10:00am 15.1 13.3 7.9 62 3.7 E 7 17 4 9 1028.4 1028.7 0.0
30/09:30am 12.7 11.9 6.3 65 3.1 CALM 0 0 0 0 1028.8 1029.0 0.0
30/09:00am 10.5 9.7 6.5 76 1.9 CALM 0 0 0 0 1028.9 1029.1 0.0
30/08:30am 8.2 6.0 5.5 83 1.2 NE 6 7 3 4 1028.8 1029.0 0.0
30/08:00am 5.8 3.2 4.3 90 0.7 NE 7 50 4 27 1028.7 1028.9 0.0
30/07:30am 3.9 1.3 3.2 95 0.3 NE 6 7 3 4 1028.7 1028.9 0.0
30/07:00am 2.0 -0.9 1.4 96 0.2 SE 6 7 3 4 1028.4 1028.7 0.0
30/06:30am 1.3 -2.0 0.4 94 0.3 NNE 7 9 4 5 1028.0 1028.2 0.0
30/06:00am 1.6 -1.6 0.9 95 0.3 ENE 7 9 4 5 1027.8 1028.0 0.0
30/05:30am 2.4 -0.4 1.8 96 0.2 SE 6 7 3 4 1027.8 1028.0 0.0
30/05:00am 1.6 -1.6 0.7 94 0.3 SE 7 11 4 6 1027.4 1027.6 0.0
30/04:30am 1.9 -1.7 0.9 93 0.4 ESE 9 11 5 6 1027.4 1027.6 0.0
30/04:00am 2.8 -0.9 2.2 96 0.2 S 11 13 6 7 1027.9 1028.1 0.0
30/03:30am 1.8 -1.4 0.8 93 0.4 SE 7 9 4 5 1027.8 1028.0 0.0
30/03:00am 2.1 -1.5 0.8 91 0.5 ENE 9 11 5 6 1028.0 1028.2 0.0
30/02:30am 2.3 -0.9 0.7 89 0.6 ESE 7 9 4 5 1028.4 1028.7 0.0
30/02:00am 3.8 2.2 2.5 91 0.5 CALM 0 0 0 0 1028.9 1029.1 0.0
30/01:30am 3.5 1.4 1.7 88 0.7 NE 2 6 1 3 1029.3 1029.5 0.0
30/01:00am 3.2 1.4 0.9 85 0.9 CALM 0 0 0 0 1029.4 1029.6 0.0
30/12:30am 3.8 2.0 1.2 83 1.0 CALM 0 0 0 0 1029.7 1029.9 0.0
30/12:00am 4.5 1.1 2.0 84 1.0 NE 9 11 5 6 1029.4 1029.6 0.0
 
Date/Time
EST
Temp
°C
App
Temp
°C
Dew
Point
Rel
Hum
%
Delta-T
°C
Wind Press
QNH
hPa
Press
MSL
hPa
Rain
since 9 am
mm
Dir
 
Spd
km/h
Gust
km/h
Spd
kts
Gust
kts
29/11:30pm 5.3 1.4 3.3 87 0.9 NE 13 17 7 9 1029.5 1029.7 0.0
29/11:00pm 5.0 1.6 2.0 81 1.2 NE 9 9 5 5 1030.0 1030.2 0.0
29/10:30pm 6.2 3.3 2.5 77 1.6 E 7 9 4 5 1030.5 1030.8 0.0
29/10:00pm 5.9 2.6 2.2 77 1.5 NNE 9 11 5 6 1030.3 1030.5 0.0
29/09:30pm 6.1 2.7 2.0 75 1.7 SSE 9 13 5 7 1030.0 1030.2 0.0
29/09:00pm 6.9 3.8 3.5 79 1.5 SE 9 11 5 6 1029.7 1029.9 0.0
29/08:30pm 7.0 4.0 1.9 70 2.1 NE 7 9 4 5 1029.6 1029.8 0.0
29/08:00pm 9.7 6.8 2.8 62 3.0 ESE 7 9 4 5 1029.6 1029.8 0.0
29/07:30pm 10.5 8.7 3.3 61 3.2 NE 2 7 1 4 1029.7 1029.9 0.0
29/07:00pm 10.4 7.4 2.3 57 3.5 NE 7 9 4 5 1029.4 1029.6 0.0
29/06:30pm 10.8 7.9 2.4 56 3.7 NE 7 11 4 6 1029.0 1029.2 0.0
29/06:00pm 11.1 7.0 2.4 55 3.8 ENE 13 17 7 9 1028.7 1028.9 0.0
29/05:30pm 14.1 8.9 2.7 46 5.2 ENE 19 20 10 11 1028.3 1028.6 0.0
29/05:00pm 16.7 13.6 1.2 35 6.9 NE 7 9 4 5 1028.0 1028.2 0.0
29/04:30pm 17.6 14.1 1.2 33 7.4 ENE 9 13 5 7 1027.7 1027.9 0.0
29/04:00pm 17.9 14.9 1.0 32 7.6 S 6 13 3 7 1027.7 1027.9 0.0

Other Formats:

Comma delimited format used in spreadsheet applications
http://www.bom.gov.au/fwo/IDQ60801/IDQ60801.94552.axf

JavaScript Object Notation format (JSON) in row-major order
http://www.bom.gov.au/fwo/IDQ60801/IDQ60801.94552.json